createdAt,value
2022-07-30T00:01:06.942Z,18.90
2022-07-30T00:05:11.107Z,18.90
2022-07-30T00:09:14.228Z,19.00
2022-07-30T00:13:19.047Z,19.10
2022-07-30T00:17:22.132Z,19.10
2022-07-30T00:21:35.724Z,19.20
2022-07-30T00:25:39.926Z,19.20
2022-07-30T00:29:44.994Z,19.30
2022-07-30T00:33:48.269Z,19.30
2022-07-30T00:37:51.591Z,19.40
2022-07-30T00:41:56.826Z,19.40
2022-07-30T00:46:01.507Z,19.50
2022-07-30T00:50:05.624Z,19.40
2022-07-30T00:54:08.764Z,19.40
2022-07-30T00:58:11.940Z,19.40
2022-07-30T01:02:16.817Z,19.30
2022-07-30T01:06:20.104Z,19.30
2022-07-30T01:10:23.306Z,19.30
2022-07-30T01:14:26.420Z,19.30
2022-07-30T01:18:47.230Z,19.30
2022-07-30T01:22:59.053Z,19.20
2022-07-30T01:27:04.014Z,19.20
2022-07-30T01:31:10.366Z,19.10
2022-07-30T01:35:15.478Z,19.00
2022-07-30T01:39:20.700Z,18.90
2022-07-30T01:43:27.026Z,18.90
2022-07-30T01:47:31.878Z,18.80
2022-07-30T01:51:37.486Z,18.80
2022-07-30T01:55:42.295Z,18.80
2022-07-30T01:59:52.046Z,18.80
2022-07-30T02:03:55.319Z,18.70
2022-07-30T02:08:07.492Z,18.70
2022-07-30T02:12:30.766Z,18.70
2022-07-30T02:16:39.256Z,18.70
2022-07-30T02:20:49.412Z,18.70
2022-07-30T02:24:53.585Z,18.70
2022-07-30T02:28:59.493Z,18.70
2022-07-30T02:33:08.443Z,18.70
2022-07-30T02:37:14.623Z,18.70
2022-07-30T02:41:19.142Z,18.60
2022-07-30T02:45:25.150Z,18.50
2022-07-30T02:49:32.587Z,18.40
2022-07-30T02:53:37.987Z,18.30
2022-07-30T02:57:44.083Z,18.20
2022-07-30T03:01:49.029Z,18.10
2022-07-30T03:05:54.269Z,18.00
2022-07-30T03:09:58.519Z,17.90
2022-07-30T03:14:03.397Z,17.80
2022-07-30T03:18:07.971Z,17.70
2022-07-30T03:22:13.986Z,17.60
2022-07-30T03:26:21.180Z,17.50
2022-07-30T03:30:25.614Z,17.50
2022-07-30T03:34:29.599Z,17.50
2022-07-30T03:38:35.275Z,17.50
2022-07-30T03:42:39.061Z,17.50
2022-07-30T03:46:43.414Z,17.50
2022-07-30T03:50:47.728Z,17.60
2022-07-30T03:54:53.189Z,17.50
2022-07-30T03:58:56.560Z,17.50
2022-07-30T04:02:59.702Z,17.50
2022-07-30T04:07:03.279Z,17.50
2022-07-30T04:11:08.119Z,17.50
2022-07-30T04:16:04.958Z,17.50
2022-07-30T04:19:39.837Z,17.50
2022-07-30T04:24:02.357Z,17.40
2022-07-30T04:28:11.208Z,17.40
2022-07-30T04:32:14.618Z,17.40
2022-07-30T04:36:17.821Z,17.40
2022-07-30T04:40:20.997Z,17.40
2022-07-30T04:44:25.718Z,17.50
2022-07-30T04:48:29.214Z,17.50
2022-07-30T04:52:32.847Z,17.60
2022-07-30T04:56:37.732Z,17.80
2022-07-30T05:00:44.323Z,18.00
2022-07-30T05:04:48.894Z,18.10
2022-07-30T05:08:52.368Z,18.30
2022-07-30T05:12:55.512Z,18.40
2022-07-30T05:17:00.496Z,18.30
2022-07-30T05:21:03.928Z,18.40
2022-07-30T05:25:16.152Z,18.50
2022-07-30T05:29:20.391Z,18.70
2022-07-30T05:33:38.778Z,18.90
2022-07-30T05:37:45.633Z,18.90
2022-07-30T05:41:48.812Z,19.10
2022-07-30T05:45:52.698Z,19.30
2022-07-30T05:50:01.477Z,19.40
2022-07-30T05:54:07.733Z,19.50
2022-07-30T05:58:11.263Z,19.60
2022-07-30T06:02:14.427Z,19.80
2022-07-30T06:06:22.862Z,20.10
2022-07-30T06:10:26.826Z,20.40
2022-07-30T06:14:30.090Z,20.60
2022-07-30T06:18:33.587Z,20.70
2022-07-30T06:22:38.483Z,20.90
2022-07-30T06:26:41.759Z,21.10
2022-07-30T06:30:46.180Z,21.20
2022-07-30T06:34:55.139Z,21.40
2022-07-30T06:39:04.923Z,21.60
2022-07-30T06:43:08.095Z,21.90
2022-07-30T06:47:11.801Z,22.00
2022-07-30T06:51:15.418Z,21.90
2022-07-30T06:55:20.705Z,21.80
2022-07-30T06:59:23.986Z,21.90
2022-07-30T07:03:40.134Z,22.10
2022-07-30T07:07:52.462Z,22.50
2022-07-30T07:12:03.270Z,22.60
2022-07-30T07:16:10.716Z,22.80
2022-07-30T07:20:13.916Z,22.90
2022-07-30T07:24:17.283Z,23.20
2022-07-30T07:28:21.948Z,23.30
2022-07-30T07:32:37.257Z,23.80
2022-07-30T07:36:40.488Z,24.50
2022-07-30T07:40:43.643Z,24.20
2022-07-30T07:44:48.278Z,24.10
2022-07-30T07:48:51.560Z,24.80
2022-07-30T07:52:54.795Z,25.00
2022-07-30T07:56:59.393Z,25.10
2022-07-30T08:01:07.127Z,24.80
2022-07-30T08:05:12.620Z,25.30
2022-07-30T08:09:15.922Z,25.50
2022-07-30T08:13:51.854Z,26.40
2022-07-30T08:17:45.037Z,26.30
2022-07-30T08:21:48.280Z,26.80
2022-07-30T08:25:51.695Z,26.80
2022-07-30T08:29:56.658Z,26.20
2022-07-30T08:34:03.214Z,26.30
2022-07-30T08:38:06.438Z,26.80
2022-07-30T08:42:09.977Z,26.20
2022-07-30T08:46:15.190Z,26.50
2022-07-30T08:50:20.268Z,26.50
2022-07-30T08:54:23.898Z,26.90
2022-07-30T08:58:30.651Z,27.70
2022-07-30T09:02:34.380Z,28.00
2022-07-30T09:06:40.956Z,28.20
2022-07-30T09:10:53.054Z,27.70
2022-07-30T09:15:04.426Z,27.90
2022-07-30T09:19:16.438Z,28.20
2022-07-30T09:23:21.271Z,28.10
2022-07-30T09:27:24.566Z,28.20
2022-07-30T09:35:36.475Z,28.60
2022-07-30T09:39:42.982Z,29.00
2022-07-30T09:44:05.010Z,29.20
2022-07-30T09:48:22.813Z,29.90
2022-07-30T09:52:30.248Z,29.90
2022-07-30T09:56:35.226Z,29.60
2022-07-30T10:00:42.318Z,29.90
2022-07-30T10:04:45.912Z,29.50
2022-07-30T10:08:52.670Z,29.50
2022-07-30T10:13:00.924Z,30.60
2022-07-30T10:17:05.303Z,31.00
2022-07-30T10:21:09.798Z,29.50
2022-07-30T10:25:16.362Z,28.10
2022-07-30T10:29:22.290Z,28.10
2022-07-30T10:33:40.414Z,28.50
2022-07-30T10:37:47.835Z,29.90
2022-07-30T10:42:03.290Z,30.40
2022-07-30T10:47:06.585Z,30.30
2022-07-30T10:51:46.730Z,29.10
2022-07-30T10:56:25.550Z,29.10
2022-07-30T11:01:00.044Z,28.70
2022-07-30T11:05:45.147Z,29.00
2022-07-30T11:10:35.474Z,29.50
2022-07-30T11:15:06.856Z,29.30
2022-07-30T11:19:55.865Z,28.90
2022-07-30T11:24:34.422Z,28.70
2022-07-30T11:29:33.539Z,29.30
2022-07-30T11:33:37.032Z,30.70
2022-07-30T11:38:18.861Z,31.70
2022-07-30T11:42:50.324Z,31.90
2022-07-30T11:47:29.009Z,32.80
2022-07-30T11:51:41.726Z,31.80
2022-07-30T11:55:47.815Z,31.50
2022-07-30T11:59:58.182Z,31.70
2022-07-30T12:09:28.855Z,32.40
2022-07-30T12:13:59.625Z,31.90
2022-07-30T12:18:26.675Z,31.10
2022-07-30T12:22:51.690Z,30.80
2022-07-30T12:27:29.976Z,30.10
2022-07-30T12:32:03.811Z,29.20
2022-07-30T12:36:40.561Z,28.20
2022-07-30T12:40:57.689Z,27.80
2022-07-30T12:45:02.295Z,27.80
2022-07-30T12:49:36.534Z,27.20
2022-07-30T12:54:13.373Z,27.00
2022-07-30T12:58:17.995Z,27.30
2022-07-30T13:02:33.954Z,27.50
2022-07-30T13:07:05.265Z,27.60
2022-07-30T13:11:39.086Z,28.00
2022-07-30T13:16:16.140Z,28.70
2022-07-30T13:20:54.428Z,28.40
2022-07-30T13:25:38.851Z,27.80
2022-07-30T13:30:05.806Z,27.30
2022-07-30T13:34:42.859Z,27.60
2022-07-30T13:39:21.246Z,28.40
2022-07-30T13:43:55.570Z,28.90
2022-07-30T13:48:33.030Z,29.20
2022-07-30T13:52:36.190Z,28.70
2022-07-30T13:57:13.568Z,28.10
2022-07-30T14:01:52.686Z,27.70
2022-07-30T14:06:26.523Z,27.60
2022-07-30T14:11:04.292Z,27.80
2022-07-30T14:15:41.013Z,27.90
2022-07-30T14:20:20.501Z,27.40
2022-07-30T14:24:57.851Z,26.70
2022-07-30T14:29:34.804Z,25.50
2022-07-30T14:34:11.541Z,23.80
2022-07-30T14:38:16.104Z,23.10
2022-07-30T14:42:50.093Z,22.80
2022-07-30T14:47:27.162Z,22.90
2022-07-30T14:51:52.622Z,23.20
2022-07-30T14:56:30.707Z,23.60
2022-07-30T15:01:14.964Z,24.10
2022-07-30T15:10:37.883Z,25.30
2022-07-30T15:15:14.644Z,26.00
2022-07-30T15:19:50.992Z,27.00
2022-07-30T15:24:26.254Z,28.10
2022-07-30T15:29:00.904Z,28.30
2022-07-30T15:33:43.077Z,28.50
2022-07-30T15:37:46.153Z,28.60
2022-07-30T15:42:22.675Z,29.00
2022-07-30T15:47:00.016Z,29.30
2022-07-30T15:51:06.030Z,28.70
2022-07-30T15:55:46.877Z,27.90
2022-07-30T16:00:15.578Z,27.50
2022-07-30T16:04:51.865Z,26.90
2022-07-30T16:09:31.515Z,26.70
2022-07-30T16:13:34.604Z,27.00
2022-07-30T16:17:37.888Z,26.90
2022-07-30T16:22:14.999Z,26.90
2022-07-30T16:26:51.534Z,26.90
2022-07-30T16:31:28.566Z,26.80
2022-07-30T16:36:05.542Z,26.70
2022-07-30T16:40:42.427Z,27.10
2022-07-30T16:45:21.011Z,27.30
2022-07-30T16:49:54.643Z,27.10
2022-07-30T16:54:32.235Z,27.00
2022-07-30T16:59:08.541Z,27.00
2022-07-30T17:03:43.852Z,27.00
2022-07-30T17:07:47.427Z,26.60
2022-07-30T17:12:25.272Z,26.60
2022-07-30T17:16:29.081Z,26.90
2022-07-30T17:20:34.233Z,26.70
2022-07-30T17:24:37.426Z,26.60
2022-07-30T17:29:15.090Z,26.50
2022-07-30T17:33:18.336Z,26.30
2022-07-30T17:37:56.811Z,26.30
2022-07-30T17:42:03.040Z,26.10
2022-07-30T17:46:37.052Z,26.10
2022-07-30T17:51:14.113Z,26.10
2022-07-30T17:55:57.314Z,25.90
2022-07-30T18:00:28.944Z,25.50
2022-07-30T18:04:32.011Z,24.90
2022-07-30T18:08:35.388Z,24.40
2022-07-30T18:13:26.496Z,23.90
2022-07-30T18:17:32.892Z,23.50
2022-07-30T18:21:36.289Z,23.30
2022-07-30T18:25:51.819Z,23.10
2022-07-30T18:29:56.810Z,22.90
2022-07-30T18:34:01.374Z,22.80
2022-07-30T18:38:35.322Z,22.60
2022-07-30T18:43:13.251Z,22.40
2022-07-30T18:47:18.274Z,22.30
2022-07-30T18:51:25.349Z,22.20
2022-07-30T18:56:02.156Z,22.10
2022-07-30T19:00:42.810Z,21.90
2022-07-30T19:04:52.805Z,21.80
2022-07-30T19:09:00.238Z,21.70
2022-07-30T19:13:33.740Z,21.50
2022-07-30T19:17:45.209Z,21.40
2022-07-30T19:22:11.171Z,21.30
2022-07-30T19:26:16.861Z,21.10
2022-07-30T19:30:50.702Z,21.00
2022-07-30T19:34:54.823Z,20.90
2022-07-30T19:39:28.542Z,20.90
2022-07-30T19:43:33.547Z,20.80
2022-07-30T19:48:09.549Z,20.60
2022-07-30T19:57:07.511Z,20.00
2022-07-30T20:01:14.505Z,19.80
2022-07-30T20:05:54.970Z,19.60
2022-07-30T20:10:21.101Z,19.30
2022-07-30T20:14:55.791Z,19.10
2022-07-30T20:19:00.326Z,18.90
2022-07-30T20:23:06.326Z,18.80
2022-07-30T20:27:43.299Z,18.60
2022-07-30T20:31:46.434Z,18.50
2022-07-30T20:36:25.079Z,18.40
2022-07-30T20:40:58.835Z,18.20
2022-07-30T20:45:40.612Z,18.20
2022-07-30T20:50:14.442Z,18.10
2022-07-30T20:54:50.080Z,17.90
2022-07-30T20:58:53.226Z,17.90
2022-07-30T21:02:58.698Z,17.90
2022-07-30T21:07:06.556Z,17.90
2022-07-30T21:11:12.683Z,17.80
2022-07-30T21:15:23.617Z,17.70
2022-07-30T21:19:51.780Z,17.60
2022-07-30T21:23:54.889Z,17.50
2022-07-30T21:27:59.334Z,17.40
2022-07-30T21:32:03.596Z,17.40
2022-07-30T21:36:10.112Z,17.30
2022-07-30T21:44:39.902Z,17.10
2022-07-30T21:49:14.054Z,17.00
2022-07-30T21:53:51.534Z,16.80
2022-07-30T21:57:54.963Z,16.70
2022-07-30T22:02:31.555Z,16.70
2022-07-30T22:07:08.350Z,16.70
2022-07-30T22:11:45.358Z,16.50
2022-07-30T22:15:50.303Z,16.40
2022-07-30T22:20:29.029Z,16.30
2022-07-30T22:24:32.135Z,16.20
2022-07-30T22:29:08.911Z,16.10
2022-07-30T22:33:15.053Z,16.10
2022-07-30T22:37:50.639Z,16.00
2022-07-30T22:41:53.758Z,16.00
2022-07-30T22:46:31.855Z,16.00
2022-07-30T22:51:11.865Z,16.00
2022-07-30T22:55:45.538Z,15.90
2022-07-30T23:00:27.192Z,15.90
2022-07-30T23:04:31.698Z,15.90
2022-07-30T23:08:36.104Z,15.90
2022-07-30T23:12:15.295Z,20.30
2022-07-30T23:12:27.581Z,17.20
2022-07-30T23:12:39.930Z,15.80
2022-07-30T23:17:15.702Z,15.70
2022-07-30T23:21:18.879Z,15.70
2022-07-30T23:25:53.019Z,15.60
2022-07-30T23:29:56.132Z,15.50
2022-07-30T23:34:15.003Z,15.50
2022-07-30T23:38:48.848Z,15.40
2022-07-30T23:43:25.780Z,15.40
2022-07-30T23:48:00.549Z,15.40
2022-07-30T23:52:06.480Z,15.30
2022-07-30T23:56:15.298Z,15.30
